Terminal Aerodrome Forecast
Issued by NWS

Current Version | Previous Version | Text Only | Print | Product List | Glossary On
Versions: 1 2 3 4 5 6 7 8 9 10 11 12 13 14 15 16 17 18 19 20 21 22 23 24 25 26 27 28 29 30 31
000
FTUS41 KALY 010040 AAA
TAFPSF
TAF AMD
KPSF 010040Z 0101/0124 14010KT P6SM SCT050 BKN100
      TEMPO 0101/0104 4SM -SHRA BR SCT025 BKN050
     FM010400 15005KT 6SM BR SCT025 BKN050
     FM010900 VRB03KT 4SM BR BKN025 OVC040
      TEMPO 0109/0112 2SM BR BKN006 OVC015
     FM011500 19006KT P6SM VCSH SCT025 BKN040
     FM011800 22009KT P6SM VCSH BKN040 BKN100
     FM012200 26007KT P6SM BKN040=

USA.gov is the U.S. government's official web portal to all federal, state and local government web resources and services.